Time;durP1;ratioP1;P1;durP2;ratioP2;P2;SDS_P1;SDS_P2;PMS_P1;PMS_P2;Temp;Humidity;BMP_temperature;BMP_pressure;BME280_temperature;BME280_humidity;BME280_pressure;Samples;Min_cycle;Max_cycle;Signal;HPM_P1;HPM_P2
2023/03/23 00:01:01;;;;;;;3.40;1.60;;;;;;;12.56;44.29;100087.44;4984170;28;20053;-77
2023/03/23 00:03:31;;;;;;;2.63;1.50;;;;;;;12.57;44.59;100097.41;4994813;28;20125;-78
2023/03/23 00:06:04;;;;;;;4.28;1.60;;;;;;;12.57;44.33;100080.06;4974291;28;20133;-77
2023/03/23 00:08:31;;;;;;;;;;;;;;;12.31;45.30;100071.91;4974843;28;20053;-77
2023/03/23 00:10:58;;;;;;;2.63;1.40;;;;;;;12.52;44.42;100077.84;4990675;28;20340;-78
2023/03/23 00:13:26;;;;;;;3.50;1.40;;;;;;;12.58;44.80;100079.91;4980372;28;20042;-77
2023/03/23 00:15:53;;;;;;;2.53;1.30;;;;;;;12.57;44.31;100069.09;4976206;28;20045;-77
2023/03/23 00:18:24;;;;;;;2.88;1.35;;;;;;;12.57;44.34;100074.59;4999797;28;20082;-77
2023/03/23 00:20:52;;;;;;;2.55;1.38;;;;;;;12.58;44.78;100077.16;4991050;28;20038;-77
2023/03/23 00:23:20;;;;;;;2.90;1.40;;;;;;;12.58;44.41;100079.91;4991008;28;20058;-78
2023/03/23 00:25:48;;;;;;;1.70;1.20;;;;;;;12.58;44.83;100063.44;4976604;28;20070;-77
2023/03/23 00:28:16;;;;;;;2.15;1.17;;;;;;;12.58;44.32;100068.94;4982692;28;20077;-77
2023/03/23 00:30:46;;;;;;;2.05;1.00;;;;;;;12.58;44.61;100060.69;4999206;28;20054;-77
2023/03/23 00:33:16;;;;;;;1.92;1.10;;;;;;;12.56;44.49;100062.75;4977108;28;20465;-77
2023/03/23 00:35:44;;;;;;;2.05;1.40;;;;;;;12.57;44.51;100060.88;4977227;28;20454;-77
2023/03/23 00:38:11;;;;;;;1.60;0.98;;;;;;;12.57;45.01;100064.47;4998327;28;20497;-77
2023/03/23 00:40:37;;;;;;;2.00;1.10;;;;;;;12.58;44.45;100065.34;4973926;28;20054;-78
2023/03/23 00:43:04;;;;;;;3.28;1.17;;;;;;;12.59;44.65;100067.06;4988993;28;20039;-77
2023/03/23 00:45:34;;;;;;;2.28;1.10;;;;;;;12.60;44.78;100071.53;4979409;28;20058;-77
2023/03/23 00:48:04;;;;;;;1.92;1.20;;;;;;;12.60;44.60;100055.91;4992020;28;20183;-77
2023/03/23 00:50:32;;;;;;;1.85;1.00;;;;;;;12.60;44.55;100055.91;4974914;28;20062;-77
2023/03/23 00:52:59;;;;;;;1.92;1.02;;;;;;;12.61;44.67;100059.53;4995894;28;20478;-79
2023/03/23 00:55:26;;;;;;;1.50;0.90;;;;;;;12.61;44.66;100052.16;4995839;28;20342;-77
2023/03/23 00:57:53;;;;;;;2.58;1.10;;;;;;;12.61;44.32;100048.53;4973372;28;20591;-77
2023/03/23 01:00:22;;;;;;;2.55;1.23;;;;;;;12.61;44.67;100054.03;4973394;28;20064;-77
2023/03/23 01:02:51;;;;;;;2.10;1.15;;;;;;;12.61;44.65;100048.53;4982634;28;20073;-77
2023/03/23 01:05:19;;;;;;;2.53;1.20;;;;;;;12.62;44.23;100042.91;4980279;28;20064;-77
2023/03/23 01:07:46;;;;;;;1.63;1.10;;;;;;;12.61;44.52;100052.16;4997141;28;20042;-77
2023/03/23 01:10:16;;;;;;;2.25;1.20;;;;;;;12.62;44.31;100053.03;4993954;28;20133;-77
2023/03/23 01:12:44;;;;;;;2.10;1.27;;;;;;;12.61;44.41;100046.66;4977810;28;20054;-77
2023/03/23 01:15:15;;;;;;;2.00;1.10;;;;;;;12.62;44.53;100051.16;5000032;28;20034;-77
2023/03/23 01:17:43;;;;;;;1.85;1.17;;;;;;;12.60;44.67;100041.31;4995548;28;20069;-77
2023/03/23 01:20:10;;;;;;;2.33;1.20;;;;;;;12.60;44.55;100053.16;4976364;28;20137;-77
2023/03/23 01:22:39;;;;;;;2.42;1.33;;;;;;;12.60;44.32;100053.16;4994253;28;20246;-76
2023/03/23 01:25:07;;;;;;;1.65;1.20;;;;;;;12.60;44.52;100055.91;4990134;28;20510;-77
2023/03/23 01:27:34;;;;;;;2.22;1.15;;;;;;;12.59;44.38;100047.84;4977996;28;20441;-78
2023/03/23 01:30:01;;;;;;;3.03;1.40;;;;;;;12.59;44.47;100047.84;4979373;28;20105;-77
2023/03/23 01:32:30;;;;;;;3.90;1.50;;;;;;;12.59;44.51;100051.44;4996311;28;20080;-79
2023/03/23 01:34:57;;;;;;;2.55;1.23;;;;;;;12.58;45.15;100046.97;4981727;28;20108;-77
2023/03/23 01:37:25;;;;;;;2.08;1.20;;;;;;;12.58;44.83;100049.72;4974408;28;20065;-77
2023/03/23 01:39:55;;;;;;;2.67;1.35;;;;;;;12.60;44.99;100055.06;4978208;28;20496;-78
2023/03/23 01:42:23;;;;;;;2.15;1.20;;;;;;;12.58;44.92;100063.44;4973419;28;20070;-78
2023/03/23 01:45:27;;;;;;;2.70;1.48;;;;;;;12.58;45.74;100033.25;4982919;28;20062;-79
2023/03/23 01:48:00;;;;;;;2.03;1.27;;;;;;;12.55;45.42;100019.84;4995765;28;20100;-78
2023/03/23 01:50:30;;;;;;;3.50;1.35;;;;;;;12.55;45.68;100003.38;4997460;28;20058;-78
2023/03/23 01:53:00;;;;;;;3.65;1.30;;;;;;;12.54;45.28;100017.31;5000986;28;20081;-79
2023/03/23 01:55:29;;;;;;;2.40;1.20;;;;;;;12.51;45.52;100018.47;4981557;28;20058;-79
2023/03/23 01:57:57;;;;;;;3.13;1.38;;;;;;;12.51;45.95;100023.97;4992533;28;20057;-79
2023/03/23 02:00:26;;;;;;;2.15;1.30;;;;;;;12.49;45.67;100015.03;4995260;28;20053;-79
2023/03/23 02:02:56;;;;;;;2.13;1.30;;;;;;;12.44;46.06;99982.63;5000793;28;20061;-79
2023/03/23 02:05:31;;;;;;;2.50;1.30;;;;;;;12.46;46.44;99982.44;4982253;28;20074;-79
2023/03/23 02:08:03;;;;;;;3.05;1.40;;;;;;;12.42;46.59;99968.22;4999044;28;20115;-79
2023/03/23 02:10:36;;;;;;;2.70;1.27;;;;;;;12.42;46.60;99961.84;4997846;28;20050;-79
2023/03/23 02:13:06;;;;;;;3.03;1.25;;;;;;;12.41;46.30;99980.19;4999507;28;20042;-79
2023/03/23 02:15:40;;;;;;;2.60;1.60;;;;;;;12.38;46.64;99972.28;4998260;28;20065;-78
2023/03/23 02:18:16;;;;;;;2.97;1.33;;;;;;;12.37;46.70;99987.06;5000179;28;20050;-78
2023/03/23 02:21:09;;;;;;;3.83;1.55;;;;;;;12.37;47.33;99994.44;4980288;28;20050;-79
2023/03/23 02:23:52;;;;;;;2.15;1.30;;;;;;;12.33;47.64;99982.06;4985244;28;20449;-77
2023/03/23 02:26:36;;;;;;;2.78;1.40;;;;;;;12.34;47.68;99979.16;4996967;28;20409;-78
2023/03/23 02:29:22;;;;;;;2.60;1.20;;;;;;;12.32;47.98;99963.88;4993352;28;20042;-78
2023/03/23 02:32:06;;;;;;;2.28;1.30;;;;;;;12.31;48.09;99953.94;4994711;28;20054;-78
2023/03/23 02:34:40;;;;;;;2.40;1.40;;;;;;;12.30;47.83;99952.22;4999198;28;20453;-79
2023/03/23 02:37:13;;;;;;;3.22;1.50;;;;;;;12.29;46.89;99953.25;4981892;28;20453;-79
2023/03/23 02:39:44;;;;;;;;;;;;;;;12.00;47.61;99951.78;4980177;28;20043;-79
2023/03/23 02:42:17;;;;;;;1.58;1.08;;;;;;;12.19;46.94;99949.78;4996543;28;20037;-78
2023/03/23 02:44:46;;;;;;;2.42;1.25;;;;;;;12.24;46.98;99952.88;4997674;28;20046;-79
2023/03/23 02:47:18;;;;;;;2.28;1.27;;;;;;;12.24;47.11;99958.38;4979917;28;20105;-78
2023/03/23 02:49:50;;;;;;;1.73;1.20;;;;;;;12.24;47.58;99959.22;4980220;28;20180;-78
2023/03/23 02:52:20;;;;;;;2.50;1.33;;;;;;;12.20;47.50;99962.50;4976197;28;20092;-78
2023/03/23 02:54:50;;;;;;;2.30;1.40;;;;;;;12.21;46.97;99972.44;4995644;28;20089;-77
2023/03/23 02:57:17;;;;;;;2.75;1.55;;;;;;;12.18;46.90;99972.75;4976500;28;20047;-77
2023/03/23 02:59:46;;;;;;;2.22;1.20;;;;;;;12.19;47.24;99974.50;4987458;28;20121;-78
2023/03/23 03:02:18;;;;;;;1.92;1.10;;;;;;;12.19;47.42;99977.22;4975656;28;20413;-77
2023/03/23 03:04:54;;;;;;;2.28;1.25;;;;;;;12.18;47.69;99967.28;4976720;28;20045;-77
2023/03/23 03:07:37;;;;;;;2.90;1.25;;;;;;;12.17;47.83;99974.66;4991713;28;20053;-78
2023/03/23 03:10:12;;;;;;;2.00;1.20;;;;;;;12.14;47.77;99980.44;4991151;28;20042;-77
2023/03/23 03:12:52;;;;;;;2.80;1.30;;;;;;;12.16;48.18;99972.91;4978766;28;20054;-79
2023/03/23 03:15:27;;;;;;;2.40;1.33;;;;;;;12.16;48.25;99963.84;4974307;28;20050;-79
2023/03/23 03:18:04;;;;;;;2.53;1.45;;;;;;;12.16;48.17;99969.31;4996720;28;20038;-79
2023/03/23 03:20:37;;;;;;;2.30;1.30;;;;;;;12.15;47.69;99964.84;4975230;28;20054;-79
2023/03/23 03:23:07;;;;;;;3.25;1.30;;;;;;;12.13;47.11;99962.28;4987397;28;20522;-78
2023/03/23 03:25:35;;;;;;;2.20;1.20;;;;;;;12.12;47.13;99966.06;4989334;28;20108;-80
2023/03/23 03:28:03;;;;;;;2.15;1.30;;;;;;;12.11;47.59;99967.09;4975361;28;20046;-79
2023/03/23 03:30:44;;;;;;;2.35;1.30;;;;;;;12.10;47.23;99966.22;4983808;28;20153;-80
2023/03/23 03:33:12;;;;;;;2.78;1.40;;;;;;;12.09;47.53;99958.16;4976622;28;20050;-80
2023/03/23 03:35:43;;;;;;;2.65;1.30;;;;;;;12.10;47.36;99958.00;4976892;28;20077;-80
2023/03/23 03:38:12;;;;;;;2.78;1.38;;;;;;;12.07;47.24;99955.56;4997196;28;20381;-77
2023/03/23 03:40:40;;;;;;;2.00;1.23;;;;;;;12.06;47.21;99963.97;4979655;28;20104;-78
2023/03/23 03:43:07;;;;;;;2.10;1.40;;;;;;;12.08;47.48;99972.91;4979733;28;20057;-80
2023/03/23 03:45:35;;;;;;;2.28;1.30;;;;;;;12.07;47.24;99971.19;4994877;28;20088;-78
2023/03/23 03:48:02;;;;;;;2.83;1.23;;;;;;;12.06;47.42;99966.72;4996666;28;20506;-80
2023/03/23 03:50:30;;;;;;;1.63;1.10;;;;;;;12.07;46.98;99957.47;4981658;28;20170;-78
2023/03/23 03:52:59;;;;;;;1.63;1.10;;;;;;;12.05;47.29;99975.97;4981474;28;20273;-77
2023/03/23 03:55:27;;;;;;;1.95;1.27;;;;;;;12.05;47.12;99962.25;4978802;28;20057;-78
2023/03/23 03:57:55;;;;;;;2.17;1.20;;;;;;;12.04;46.83;99958.66;4977349;28;20054;-79
2023/03/23 04:00:41;;;;;;;1.67;1.17;;;;;;;12.02;47.17;99960.72;5007782;28;20405;-78
2023/03/23 04:03:10;;;;;;;1.95;1.10;;;;;;;12.03;47.58;99959.69;4972741;28;20054;-80
2023/03/23 04:05:51;;;;;;;3.00;1.40;;;;;;;12.01;47.06;99967.22;4991825;28;20541;-80
2023/03/23 04:08:19;;;;;;;2.40;1.23;;;;;;;12.03;47.51;99962.44;4978562;28;20042;-79
2023/03/23 04:10:46;;;;;;;2.25;1.20;;;;;;;12.01;47.41;99959.00;4977866;28;20050;-80
2023/03/23 04:13:13;;;;;;;1.80;1.17;;;;;;;12.01;47.13;99953.50;4978276;28;20052;-79
2023/03/23 04:16:00;;;;;;;2.40;1.30;;;;;;;12.01;47.08;99958.13;4997902;28;20081;-80
2023/03/23 04:18:28;;;;;;;1.85;1.20;;;;;;;12.01;47.06;99958.13;4994756;28;20085;-79
2023/03/23 04:20:59;;;;;;;2.22;1.08;;;;;;;12.00;46.72;99954.53;4974240;28;20055;-80
2023/03/23 04:23:30;;;;;;;2.38;1.05;;;;;;;12.02;47.26;99960.72;4978836;28;20120;-80
2023/03/23 04:26:01;;;;;;;2.05;1.40;;;;;;;12.00;47.31;99954.53;4981698;28;20046;-80
2023/03/23 04:28:35;;;;;;;2.00;1.20;;;;;;;12.00;46.93;99959.16;4977246;28;20050;-80
2023/03/23 04:31:20;;;;;;;1.92;1.10;;;;;;;11.98;46.88;99961.19;4992734;28;20057;-80
2023/03/23 04:33:53;;;;;;;1.65;1.10;;;;;;;11.97;47.00;99964.94;4976331;28;20487;-80
2023/03/23 04:36:23;;;;;;;1.98;1.00;;;;;;;11.98;46.99;99964.78;4989605;28;20057;-80
2023/03/23 04:39:03;;;;;;;3.42;1.73;;;;;;;11.98;47.21;99978.50;4980520;28;20050;-80
2023/03/23 04:41:30;;;;;;;1.73;1.05;;;;;;;11.98;46.94;99980.38;4976576;28;20468;-81
2023/03/23 04:44:09;;;;;;;2.22;1.10;;;;;;;11.97;47.35;99985.00;4984453;28;20093;-80
2023/03/23 04:46:45;;;;;;;1.73;1.13;;;;;;;11.97;47.36;99979.53;4998522;28;20498;-80
2023/03/23 04:49:15;;;;;;;2.10;1.20;;;;;;;11.98;46.82;99974.91;4981061;28;20050;-79
2023/03/23 04:51:42;;;;;;;1.75;1.15;;;;;;;11.98;47.26;99984.00;4982167;28;20046;-79
2023/03/23 04:54:29;;;;;;;2.72;1.60;;;;;;;11.98;47.12;99988.63;5004626;28;20155;-78
2023/03/23 04:56:59;;;;;;;1.77;0.98;;;;;;;11.95;47.34;99983.47;4979156;28;20050;-79
2023/03/23 04:59:27;;;;;;;6.07;1.38;;;;;;;11.98;46.73;99977.66;4979577;28;20042;-80
2023/03/23 05:02:04;;;;;;;2.92;1.17;;;;;;;11.97;47.15;99976.78;4980502;28;20046;-78
2023/03/23 05:04:33;;;;;;;2.60;1.27;;;;;;;11.98;46.73;99981.25;5006822;28;20588;-80
2023/03/23 05:07:08;;;;;;;2.20;1.20;;;;;;;11.96;46.89;99994.28;4980508;28;20050;-80
2023/03/23 05:09:44;;;;;;;1.75;1.10;;;;;;;11.99;46.97;99979.38;4979420;28;20042;-80
2023/03/23 05:12:11;;;;;;;1.80;1.20;;;;;;;11.98;47.03;99992.22;4977035;28;20627;-79
2023/03/23 05:14:49;;;;;;;1.58;1.00;;;;;;;11.98;47.07;99991.34;5005071;23;20511;-76
2023/03/23 05:17:19;;;;;;;2.35;1.30;;;;;;;11.98;46.74;99994.97;5029903;28;20057;-77
2023/03/23 05:19:48;;;;;;;2.47;1.20;;;;;;;11.98;46.93;99994.97;5028825;28;20064;-77
2023/03/23 05:22:34;;;;;;;2.53;1.10;;;;;;;11.96;46.61;99994.28;5040830;28;20518;-77
2023/03/23 05:25:08;;;;;;;2.72;1.30;;;;;;;11.98;47.06;99989.47;5036678;28;20420;-77
2023/03/23 05:27:37;;;;;;;2.03;1.17;;;;;;;11.98;47.07;99994.09;5018270;28;20045;-77
2023/03/23 05:30:16;;;;;;;2.15;1.15;;;;;;;11.97;46.54;99990.50;5014667;28;20049;-78
2023/03/23 05:32:44;;;;;;;1.85;1.20;;;;;;;11.97;47.09;99990.50;5031281;28;20398;-77
2023/03/23 05:35:33;;;;;;;2.65;1.25;;;;;;;11.97;46.81;100006.09;5018784;28;20045;-77
2023/03/23 05:38:03;;;;;;;3.10;1.27;;;;;;;11.97;47.09;100004.22;5017450;28;20042;-77
2023/03/23 05:40:31;;;;;;;2.90;1.27;;;;;;;11.99;47.07;99999.44;5012388;28;20324;-77
2023/03/23 05:43:03;;;;;;;1.60;1.10;;;;;;;11.98;46.97;100002.31;4993163;28;20049;-77
2023/03/23 05:45:41;;;;;;;1.95;1.27;;;;;;;11.98;47.10;99996.84;5008836;28;20046;-77
2023/03/23 05:48:08;;;;;;;3.10;1.20;;;;;;;11.98;46.53;100003.19;4991750;28;20046;-77
2023/03/23 05:50:36;;;;;;;2.00;1.25;;;;;;;11.98;47.06;100011.41;4997007;28;20053;-77
2023/03/23 05:53:04;;;;;;;2.55;1.38;;;;;;;11.98;46.80;100005.94;5007504;28;20065;-77
2023/03/23 05:55:35;;;;;;;2.42;1.40;;;;;;;12.00;46.95;100003.03;4993464;28;20496;-78
2023/03/23 05:58:11;;;;;;;2.50;1.50;;;;;;;11.98;46.50;100005.06;4994176;28;20077;-77
2023/03/23 06:00:42;;;;;;;2.85;1.40;;;;;;;11.99;46.88;99998.56;4996779;28;20408;-78
2023/03/23 06:03:30;;;;;;;3.20;1.40;;;;;;;11.98;46.36;100013.28;5000764;28;20045;-77
2023/03/23 06:06:11;;;;;;;3.10;1.30;;;;;;;12.00;46.35;100011.25;4999158;28;20552;-78
2023/03/23 06:08:53;;;;;;;2.30;1.30;;;;;;;11.98;46.74;100010.56;4997732;28;20092;-77
2023/03/23 06:11:30;;;;;;;2.60;1.42;;;;;;;12.00;46.19;100025.81;5007226;28;20122;-77
2023/03/23 06:14:21;;;;;;;2.75;1.48;;;;;;;11.98;46.30;100022.38;5004680;28;20049;-77
2023/03/23 06:16:48;;;;;;;3.50;1.70;;;;;;;12.00;46.34;100030.44;4990819;28;20653;-78
2023/03/23 06:19:16;;;;;;;3.75;1.30;;;;;;;12.00;46.66;100030.44;4992488;28;20069;-77
2023/03/23 06:21:52;;;;;;;3.33;1.67;;;;;;;11.99;46.10;100032.34;4989838;28;20049;-76
2023/03/23 06:24:45;;;;;;;2.97;1.27;;;;;;;11.98;46.56;100037.97;5005092;28;20054;-78
2023/03/23 06:27:17;;;;;;;2.42;1.40;;;;;;;12.01;46.41;100035.78;5005053;28;20054;-77
2023/03/23 06:29:46;;;;;;;3.10;1.60;;;;;;;12.01;46.33;100038.53;4992557;28;20038;-80
2023/03/23 06:32:14;;;;;;;3.83;1.38;;;;;;;12.02;46.47;100039.38;4989198;28;20046;-78
2023/03/23 06:34:46;;;;;;;3.65;1.75;;;;;;;12.02;46.06;100039.38;4997579;28;20046;-77
2023/03/23 06:37:31;;;;;;;3.03;1.40;;;;;;;12.00;46.31;100036.81;5006551;28;20076;-78
2023/03/23 06:40:14;;;;;;;3.13;1.60;;;;;;;12.00;46.22;100035.94;4995055;28;20033;-77
2023/03/23 06:42:46;;;;;;;3.50;1.42;;;;;;;12.04;46.52;100040.94;4985095;28;20050;-76
2023/03/23 06:45:35;;;;;;;2.67;1.45;;;;;;;12.03;46.07;100038.38;5010364;28;20615;-76
2023/03/23 06:48:38;;;;;;;2.67;1.35;;;;;;;12.03;46.24;100032.88;4992542;28;20707;-76
2023/03/23 06:51:08;;;;;;;;;;;;;;;11.78;46.52;100036.50;5026562;28;20081;-75
2023/03/23 06:53:37;;;;;;;3.42;1.40;;;;;;;11.99;46.32;100043.31;5013070;28;20090;-76
2023/03/23 06:56:06;;;;;;;2.83;1.40;;;;;;;12.05;46.18;100050.00;5022573;28;20041;-77
2023/03/23 06:58:36;;;;;;;2.70;1.30;;;;;;;12.06;45.86;100054.47;5010716;28;20057;-76
2023/03/23 07:01:03;;;;;;;2.47;1.40;;;;;;;12.06;45.75;100058.06;5009304;28;20550;-77
2023/03/23 07:03:35;;;;;;;3.05;1.50;;;;;;;12.07;46.04;100058.94;5012149;28;20504;-76
2023/03/23 07:06:03;;;;;;;2.67;1.20;;;;;;;12.07;45.77;100047.97;5021304;28;20046;-76
2023/03/23 07:08:33;;;;;;;2.50;1.23;;;;;;;12.05;45.76;100060.97;5008960;28;20045;-76
2023/03/23 07:11:00;;;;;;;3.15;1.45;;;;;;;12.06;45.77;100049.84;5009106;28;20571;-77
2023/03/23 07:13:29;;;;;;;3.50;1.38;;;;;;;12.08;45.63;100061.53;5024289;28;20512;-76
2023/03/23 07:16:01;;;;;;;2.95;1.42;;;;;;;12.10;45.62;100055.88;5009593;28;20116;-76
2023/03/23 07:18:29;;;;;;;2.88;1.30;;;;;;;12.08;46.02;100061.53;5012606;28;20042;-73
2023/03/23 07:20:58;;;;;;;3.05;1.42;;;;;;;12.09;46.03;100060.50;5027777;28;20049;-73
2023/03/23 07:23:49;;;;;;;2.95;1.20;;;;;;;12.08;45.40;100052.44;5033728;28;20508;-74
2023/03/23 07:26:23;;;;;;;4.07;1.27;;;;;;;12.09;46.26;100059.63;4993626;28;20133;-81
2023/03/23 07:28:54;;;;;;;3.28;1.13;;;;;;;12.11;45.73;100052.97;4977780;28;20038;-80
2023/03/23 07:31:35;;;;;;;2.85;1.50;;;;;;;12.13;45.60;100064.63;4977254;28;20062;-80
2023/03/23 07:34:02;;;;;;;3.35;1.17;;;;;;;12.15;45.92;100060.84;4958493;28;20081;-80
2023/03/23 07:36:39;;;;;;;3.00;1.40;;;;;;;12.15;45.50;100058.13;4946116;28;20030;-80
2023/03/23 07:39:08;;;;;;;3.08;1.40;;;;;;;12.17;45.46;100067.03;4943657;28;20194;-80
2023/03/23 07:41:35;;;;;;;2.70;1.10;;;;;;;12.18;45.51;100055.06;4973434;28;20384;-82
2023/03/23 07:44:14;;;;;;;2.78;1.25;;;;;;;12.18;45.67;100063.28;4972011;28;20043;-81
2023/03/23 07:46:44;;;;;;;4.63;1.30;;;;;;;12.21;45.47;100066.56;4957658;28;20050;-81
2023/03/23 07:49:17;;;;;;;2.85;1.10;;;;;;;12.19;45.46;100051.28;4957584;28;20093;-81
2023/03/23 07:51:51;;;;;;;2.47;1.23;;;;;;;12.22;45.21;100067.41;4973458;28;20110;-79
2023/03/23 07:54:18;;;;;;;4.28;1.30;;;;;;;12.23;45.62;100059.00;4973944;28;20030;-82
2023/03/23 07:56:54;;;;;;;3.33;1.30;;;;;;;12.24;45.26;100059.88;4980982;28;20532;-80
2023/03/23 07:59:31;;;;;;;2.55;1.10;;;;;;;12.25;45.20;100062.47;4977294;28;20054;-80
2023/03/23 08:02:01;;;;;;;2.88;1.27;;;;;;;12.28;45.05;100062.16;4962650;28;20540;-80
2023/03/23 08:04:48;;;;;;;2.58;1.30;;;;;;;12.27;45.29;100059.56;4981293;28;20373;-80
2023/03/23 08:07:30;;;;;;;2.90;1.15;;;;;;;12.28;45.31;100062.16;4982890;28;20062;-80
2023/03/23 08:10:09;;;;;;;2.75;1.30;;;;;;;12.29;44.95;100066.63;4985991;28;20089;-80
2023/03/23 08:13:02;;;;;;;3.70;1.55;;;;;;;12.29;45.14;100065.75;4995746;28;20074;-80
2023/03/23 08:15:51;;;;;;;2.83;1.25;;;;;;;12.31;44.70;100066.41;4979870;28;20049;-80
2023/03/23 08:18:43;;;;;;;2.17;1.33;;;;;;;12.32;44.79;100073.63;4978317;28;20046;-81
2023/03/23 08:21:22;;;;;;;2.60;1.27;;;;;;;12.30;45.24;100071.03;4990607;28;20065;-81
2023/03/23 08:24:13;;;;;;;3.17;1.40;;;;;;;12.32;45.10;100074.50;4979836;28;20042;-79
2023/03/23 08:27:02;;;;;;;3.83;1.70;;;;;;;12.33;45.22;100075.34;4996290;28;20057;-81
2023/03/23 08:29:45;;;;;;;4.30;1.60;;;;;;;12.37;44.63;100082.25;4985170;28;20134;-80
2023/03/23 08:32:48;;;;;;;2.03;1.17;;;;;;;12.35;44.62;100074.19;4907594;29;20101;-79
2023/03/23 08:35:39;;;;;;;1.95;1.10;;;;;;;12.38;44.60;100071.06;4942575;28;20042;-79
2023/03/23 08:38:32;;;;;;;3.38;1.40;;;;;;;12.39;44.62;100071.94;4962380;28;20490;-79
2023/03/23 08:41:12;;;;;;;4.03;1.67;;;;;;;12.40;44.72;100074.53;4979402;28;20088;-81
2023/03/23 08:43:58;;;;;;;2.72;1.20;;;;;;;12.42;44.57;100082.59;4988442;28;20421;-81
2023/03/23 08:46:56;;;;;;;2.47;1.05;;;;;;;12.43;44.44;100098.03;4992790;28;20048;-81
2023/03/23 08:49:52;;;;;;;3.08;1.05;;;;;;;12.44;44.38;100086.03;4985752;28;20045;-80
2023/03/23 08:52:39;;;;;;;3.08;1.10;;;;;;;12.46;44.36;100104.03;4984325;28;20049;-81
2023/03/23 08:55:19;;;;;;;2.15;1.00;;;;;;;12.47;44.48;100094.78;4980724;28;20076;-80
2023/03/23 08:58:04;;;;;;;3.10;1.17;;;;;;;12.48;44.73;100107.50;4994717;28;20053;-81
2023/03/23 09:00:57;;;;;;;3.35;1.20;;;;;;;12.49;44.37;100102.88;4966281;28;20129;-82
2023/03/23 09:03:57;;;;;;;2.83;0.90;;;;;;;12.52;44.37;100097.06;4973731;28;20525;-80
2023/03/23 09:06:42;;;;;;;2.47;1.10;;;;;;;12.55;44.36;100106.81;4987897;28;20465;-80
2023/03/23 09:09:11;;;;;;;2.75;1.20;;;;;;;12.59;44.16;100102.75;4992095;28;20053;-81
2023/03/23 09:11:38;;;;;;;2.38;1.10;;;;;;;12.59;44.07;100100.00;4977241;28;20498;-80
2023/03/23 09:14:08;;;;;;;4.20;1.40;;;;;;;12.62;44.03;100097.81;4990301;28;20062;-80
2023/03/23 09:16:35;;;;;;;2.97;1.38;;;;;;;12.63;44.40;100095.91;4990839;28;20035;-80
2023/03/23 09:19:02;;;;;;;1.80;1.00;;;;;;;12.65;44.03;100093.88;4982834;28;20051;-80
2023/03/23 09:21:29;;;;;;;2.55;1.10;;;;;;;12.66;43.86;100092.84;4981439;28;20054;-82
2023/03/23 09:23:58;;;;;;;3.63;1.17;;;;;;;12.67;44.09;100089.94;4976748;28;20077;-81
2023/03/23 09:26:26;;;;;;;2.50;1.10;;;;;;;12.71;44.27;100093.19;4989344;28;20108;-80
2023/03/23 09:28:53;;;;;;;2.97;1.10;;;;;;;12.70;43.84;100089.63;4983776;28;20482;-80
2023/03/23 09:31:22;;;;;;;3.03;1.00;;;;;;;12.73;43.82;100096.63;4981549;28;20083;-81
2023/03/23 09:33:51;;;;;;;3.92;1.05;;;;;;;12.74;44.10;100101.09;4993269;28;20053;-81
2023/03/23 09:36:21;;;;;;;2.28;1.27;;;;;;;12.76;43.69;100104.56;4978930;28;20535;-81
2023/03/23 09:38:48;;;;;;;2.63;0.90;;;;;;;12.77;44.18;100109.88;4974166;28;20046;-81
2023/03/23 09:41:38;;;;;;;3.20;1.13;;;;;;;12.81;43.63;100110.38;4982488;28;20051;-81
2023/03/23 09:44:11;;;;;;;4.50;1.20;;;;;;;12.81;43.14;100115.88;4995953;28;20061;-80
2023/03/23 09:46:51;;;;;;;2.92;1.20;;;;;;;12.83;43.00;100119.31;4977631;28;20051;-81
2023/03/23 09:49:21;;;;;;;2.22;1.05;;;;;;;12.81;43.60;100111.25;4982513;28;20039;-80
2023/03/23 09:51:52;;;;;;;2.28;1.08;;;;;;;12.84;43.04;100123.78;4977033;28;20055;-80
2023/03/23 09:54:22;;;;;;;4.28;1.20;;;;;;;12.85;43.07;100117.28;4972691;28;20047;-79
2023/03/23 09:56:52;;;;;;;3.85;1.30;;;;;;;12.86;43.26;100116.25;4976171;28;20051;-79
2023/03/23 09:59:24;;;;;;;3.35;1.20;;;;;;;12.85;42.87;100111.78;4974122;28;20108;-79
2023/03/23 10:01:54;;;;;;;3.40;1.25;;;;;;;12.84;43.34;100110.06;4966851;28;20044;-79
2023/03/23 10:04:31;;;;;;;3.03;1.10;;;;;;;12.86;42.37;100111.63;4993406;28;20522;-79
2023/03/23 10:07:01;;;;;;;4.07;0.98;;;;;;;12.86;42.72;100114.38;4986205;28;20057;-79
2023/03/23 10:09:29;;;;;;;2.58;1.00;;;;;;;12.88;42.72;100122.41;4985495;28;20050;-80
2023/03/23 10:12:08;;;;;;;2.10;1.20;;;;;;;12.88;42.60;100152.63;4955359;28;20063;-79
2023/03/23 10:15:12;;;;;;;3.70;0.98;;;;;;;12.83;42.76;100155.88;4984652;28;20044;-79
2023/03/23 10:17:46;;;;;;;1.40;0.57;;;;;;;12.85;43.30;100169.47;4986939;28;20486;-79
2023/03/23 10:20:45;;;;;;;1.45;0.60;;;;;;;12.79;43.87;100187.44;4967356;28;20101;-79
2023/03/23 10:23:39;;;;;;;1.73;0.50;;;;;;;12.78;44.24;100179.38;4907291;29;20043;-80
2023/03/23 10:26:16;;;;;;;1.27;0.47;;;;;;;12.78;44.74;100185.75;4974852;28;20115;-79
2023/03/23 10:28:47;;;;;;;0.68;0.40;;;;;;;12.72;44.09;100183.63;4976854;28;20031;-79
2023/03/23 10:31:18;;;;;;;1.92;0.65;;;;;;;12.69;44.04;100186.72;4966574;28;20527;-79
2023/03/23 10:33:48;;;;;;;1.33;0.50;;;;;;;12.64;44.27;100177.25;4968791;28;20042;-78
2023/03/23 10:36:18;;;;;;;1.00;0.70;;;;;;;12.59;44.81;100185.94;4973916;28;20540;-80
2023/03/23 10:38:49;;;;;;;1.98;0.70;;;;;;;12.55;44.81;100186.41;4972408;28;20045;-79
2023/03/23 10:41:19;;;;;;;1.25;0.60;;;;;;;12.49;44.60;100190.69;4977400;28;20069;-81
2023/03/23 10:43:49;;;;;;;1.45;0.73;;;;;;;12.45;44.77;100186.56;4966017;28;20094;-79
2023/03/23 10:46:28;;;;;;;1.83;0.82;;;;;;;12.41;45.65;100183.28;4972539;28;20115;-78
2023/03/23 10:48:58;;;;;;;1.90;0.68;;;;;;;12.36;45.22;100179.31;4967376;28;20034;-79
2023/03/23 10:51:31;;;;;;;1.85;0.70;;;;;;;12.34;46.01;100178.59;4982739;28;20051;-80
2023/03/23 10:54:01;;;;;;;1.45;0.50;;;;;;;12.28;45.78;100187.50;4969172;28;20047;-78
2023/03/23 10:56:34;;;;;;;0.75;0.40;;;;;;;12.26;45.93;100193.13;4988851;28;20070;-79
2023/03/23 10:59:13;;;;;;;1.65;0.60;;;;;;;12.23;46.73;100193.44;4971575;28;20102;-80
2023/03/23 11:01:44;;;;;;;0.82;0.45;;;;;;;12.20;46.75;100190.19;4969520;28;20050;-80
2023/03/23 11:04:14;;;;;;;1.13;0.73;;;;;;;12.17;46.57;100196.84;4971672;28;20402;-78
2023/03/23 11:06:46;;;;;;;0.90;0.52;;;;;;;12.16;46.51;100195.13;4970525;28;20061;-80
2023/03/23 11:09:15;;;;;;;1.10;0.70;;;;;;;12.13;46.10;100200.06;4967594;28;20043;-79
2023/03/23 11:11:46;;;;;;;1.38;0.90;;;;;;;12.11;46.24;100198.34;4988559;28;20101;-79
2023/03/23 11:14:19;;;;;;;0.43;0.40;;;;;;;12.10;47.68;100193.88;4971471;28;20112;-80
2023/03/23 11:16:52;;;;;;;1.15;0.68;;;;;;;12.09;47.49;100202.25;4974610;28;20129;-80
2023/03/23 11:19:24;;;;;;;0.63;0.55;;;;;;;12.05;47.36;100196.22;4974943;28;20057;-81
2023/03/23 11:21:53;;;;;;;0.93;0.60;;;;;;;12.01;46.72;100197.59;4990121;28;20046;-80
2023/03/23 11:24:23;;;;;;;1.27;0.80;;;;;;;12.02;46.80;100191.09;4994856;28;20608;-81
2023/03/23 11:26:52;;;;;;;1.67;0.70;;;;;;;12.01;46.92;100202.22;5000201;28;20053;-80
2023/03/23 11:29:23;;;;;;;1.58;0.80;;;;;;;12.00;47.91;100214.19;4998261;28;20089;-80
2023/03/23 11:31:53;;;;;;;2.33;0.70;;;;;;;11.98;47.07;100195.16;4986952;28;20049;-80
2023/03/23 11:34:22;;;;;;;2.33;0.93;;;;;;;11.97;47.08;100196.16;4996514;28;20042;-80
2023/03/23 11:36:53;;;;;;;2.05;0.75;;;;;;;11.97;47.33;100192.56;5000812;28;20122;-80
2023/03/23 11:39:23;;;;;;;1.83;0.90;;;;;;;11.96;47.58;100207.31;5001193;28;20042;-80
2023/03/23 11:41:50;;;;;;;2.47;0.80;;;;;;;11.93;47.60;100194.78;4985719;28;20049;-80
2023/03/23 11:44:17;;;;;;;2.25;0.85;;;;;;;11.92;47.31;100193.06;4999191;28;20045;-80
2023/03/23 11:46:55;;;;;;;1.92;0.80;;;;;;;11.94;48.22;100195.63;4992494;28;20053;-79
2023/03/23 11:49:33;;;;;;;1.67;0.95;;;;;;;11.93;48.43;100196.66;4990085;28;20148;-79
2023/03/23 11:52:14;;;;;;;1.95;1.00;;;;;;;11.92;48.64;100183.97;5001401;28;20053;-79
2023/03/23 11:54:47;;;;;;;2.55;0.80;;;;;;;11.92;48.52;100175.75;4978911;28;20415;-80
2023/03/23 11:57:15;;;;;;;1.70;0.80;;;;;;;11.90;48.14;100175.88;4993998;28;20046;-79
2023/03/23 11:59:43;;;;;;;1.90;0.90;;;;;;;11.92;48.41;100181.22;4984414;28;20042;-79